sensor_id;sensor_type;location;lat;lon;timestamp;temperature;humidity
18412;DHT22;27097;51.738;19.472;2022-08-19T00:00:16;27.00;61.80
18412;DHT22;27097;51.738;19.472;2022-08-19T00:02:44;27.00;61.80
18412;DHT22;27097;51.738;19.472;2022-08-19T00:05:13;27.00;61.90
18412;DHT22;27097;51.738;19.472;2022-08-19T00:07:41;27.00;61.80
18412;DHT22;27097;51.738;19.472;2022-08-19T00:10:13;27.00;61.80
18412;DHT22;27097;51.738;19.472;2022-08-19T00:12:40;27.00;61.70
18412;DHT22;27097;51.738;19.472;2022-08-19T00:15:11;27.00;62.00
18412;DHT22;27097;51.738;19.472;2022-08-19T00:17:38;27.00;62.00
18412;DHT22;27097;51.738;19.472;2022-08-19T00:20:07;27.00;62.00
18412;DHT22;27097;51.738;19.472;2022-08-19T00:22:34;27.00;61.80
18412;DHT22;27097;51.738;19.472;2022-08-19T00:25:01;27.00;62.10
18412;DHT22;27097;51.738;19.472;2022-08-19T00:27:29;27.00;62.50
18412;DHT22;27097;51.738;19.472;2022-08-19T00:29:56;27.00;61.90
18412;DHT22;27097;51.738;19.472;2022-08-19T00:32:24;26.90;62.10
18412;DHT22;27097;51.738;19.472;2022-08-19T00:34:51;26.90;61.80
18412;DHT22;27097;51.738;19.472;2022-08-19T00:37:19;26.90;62.90
18412;DHT22;27097;51.738;19.472;2022-08-19T00:39:48;26.90;63.10
18412;DHT22;27097;51.738;19.472;2022-08-19T00:42:16;26.90;62.90
18412;DHT22;27097;51.738;19.472;2022-08-19T00:44:45;26.90;63.60
18412;DHT22;27097;51.738;19.472;2022-08-19T00:47:13;26.90;63.60
18412;DHT22;27097;51.738;19.472;2022-08-19T00:49:42;26.90;63.80
18412;DHT22;27097;51.738;19.472;2022-08-19T00:52:14;26.90;63.10
18412;DHT22;27097;51.738;19.472;2022-08-19T00:54:41;26.90;63.10
18412;DHT22;27097;51.738;19.472;2022-08-19T00:57:12;26.90;63.00
18412;DHT22;27097;51.738;19.472;2022-08-19T00:59:43;26.90;63.10
18412;DHT22;27097;51.738;19.472;2022-08-19T01:02:13;26.90;63.10
18412;DHT22;27097;51.738;19.472;2022-08-19T01:04:40;26.90;62.90
18412;DHT22;27097;51.738;19.472;2022-08-19T01:07:07;26.80;62.90
18412;DHT22;27097;51.738;19.472;2022-08-19T01:09:34;26.80;62.90
18412;DHT22;27097;51.738;19.472;2022-08-19T01:12:02;26.90;62.70
18412;DHT22;27097;51.738;19.472;2022-08-19T01:14:30;26.80;62.80
18412;DHT22;27097;51.738;19.472;2022-08-19T01:16:58;26.80;62.70
18412;DHT22;27097;51.738;19.472;2022-08-19T01:19:29;26.80;63.10
18412;DHT22;27097;51.738;19.472;2022-08-19T01:22:02;26.80;63.00
18412;DHT22;27097;51.738;19.472;2022-08-19T01:24:31;26.80;62.90
18412;DHT22;27097;51.738;19.472;2022-08-19T01:26:58;26.80;63.10
18412;DHT22;27097;51.738;19.472;2022-08-19T01:29:25;26.80;63.00
18412;DHT22;27097;51.738;19.472;2022-08-19T01:31:52;26.80;63.00
18412;DHT22;27097;51.738;19.472;2022-08-19T01:34:19;26.80;62.90
18412;DHT22;27097;51.738;19.472;2022-08-19T01:36:47;26.80;62.90
18412;DHT22;27097;51.738;19.472;2022-08-19T01:39:16;26.80;63.20
18412;DHT22;27097;51.738;19.472;2022-08-19T01:41:46;26.80;63.00
18412;DHT22;27097;51.738;19.472;2022-08-19T01:44:13;26.80;63.20
18412;DHT22;27097;51.738;19.472;2022-08-19T01:46:41;26.80;62.90
18412;DHT22;27097;51.738;19.472;2022-08-19T01:49:10;26.80;62.90
18412;DHT22;27097;51.738;19.472;2022-08-19T01:51:37;26.80;62.90
18412;DHT22;27097;51.738;19.472;2022-08-19T01:54:04;26.80;62.90
18412;DHT22;27097;51.738;19.472;2022-08-19T01:56:31;26.80;63.00
18412;DHT22;27097;51.738;19.472;2022-08-19T01:59:02;26.70;63.20
18412;DHT22;27097;51.738;19.472;2022-08-19T02:01:31;26.70;62.70
18412;DHT22;27097;51.738;19.472;2022-08-19T02:03:59;26.80;62.80
18412;DHT22;27097;51.738;19.472;2022-08-19T02:06:26;26.80;62.80
18412;DHT22;27097;51.738;19.472;2022-08-19T02:08:54;26.70;63.00
18412;DHT22;27097;51.738;19.472;2022-08-19T02:11:23;26.80;63.40
18412;DHT22;27097;51.738;19.472;2022-08-19T02:13:52;26.70;62.70
18412;DHT22;27097;51.738;19.472;2022-08-19T02:16:21;26.70;62.70
18412;DHT22;27097;51.738;19.472;2022-08-19T02:18:48;26.70;62.70
18412;DHT22;27097;51.738;19.472;2022-08-19T02:21:16;26.70;62.80
18412;DHT22;27097;51.738;19.472;2022-08-19T02:23:44;26.70;62.80
18412;DHT22;27097;51.738;19.472;2022-08-19T02:26:11;26.70;62.70
18412;DHT22;27097;51.738;19.472;2022-08-19T02:28:39;26.70;63.00
18412;DHT22;27097;51.738;19.472;2022-08-19T02:31:09;26.70;62.90
18412;DHT22;27097;51.738;19.472;2022-08-19T02:33:38;26.70;62.80
18412;DHT22;27097;51.738;19.472;2022-08-19T02:36:07;26.70;62.80
18412;DHT22;27097;51.738;19.472;2022-08-19T02:38:34;26.70;62.90
18412;DHT22;27097;51.738;19.472;2022-08-19T02:41:04;26.70;63.50
18412;DHT22;27097;51.738;19.472;2022-08-19T02:43:33;26.60;62.90
18412;DHT22;27097;51.738;19.472;2022-08-19T02:46:02;26.70;63.00
18412;DHT22;27097;51.738;19.472;2022-08-19T02:48:38;26.70;62.70
18412;DHT22;27097;51.738;19.472;2022-08-19T02:51:05;26.70;62.80
18412;DHT22;27097;51.738;19.472;2022-08-19T02:53:32;26.70;62.90
18412;DHT22;27097;51.738;19.472;2022-08-19T02:55:59;26.70;63.20
18412;DHT22;27097;51.738;19.472;2022-08-19T02:58:26;26.70;63.00
18412;DHT22;27097;51.738;19.472;2022-08-19T03:00:55;26.70;63.00
18412;DHT22;27097;51.738;19.472;2022-08-19T03:03:22;26.70;62.90
18412;DHT22;27097;51.738;19.472;2022-08-19T03:05:51;26.70;62.90
18412;DHT22;27097;51.738;19.472;2022-08-19T03:08:18;26.70;62.90
18412;DHT22;27097;51.738;19.472;2022-08-19T03:10:46;26.70;62.70
18412;DHT22;27097;51.738;19.472;2022-08-19T03:13:16;26.70;62.90
18412;DHT22;27097;51.738;19.472;2022-08-19T03:15:45;26.70;62.90
18412;DHT22;27097;51.738;19.472;2022-08-19T03:18:13;26.70;63.00
18412;DHT22;27097;51.738;19.472;2022-08-19T03:20:42;26.70;62.90
18412;DHT22;27097;51.738;19.472;2022-08-19T03:23:11;26.60;62.90
18412;DHT22;27097;51.738;19.472;2022-08-19T03:25:39;26.60;63.10
18412;DHT22;27097;51.738;19.472;2022-08-19T03:28:07;26.60;63.10
18412;DHT22;27097;51.738;19.472;2022-08-19T03:30:34;26.60;63.10
18412;DHT22;27097;51.738;19.472;2022-08-19T03:33:01;26.70;63.20
18412;DHT22;27097;51.738;19.472;2022-08-19T03:35:28;26.70;63.20
18412;DHT22;27097;51.738;19.472;2022-08-19T03:37:55;26.60;63.10
18412;DHT22;27097;51.738;19.472;2022-08-19T03:40:24;26.60;63.10
18412;DHT22;27097;51.738;19.472;2022-08-19T03:42:51;26.60;63.10
18412;DHT22;27097;51.738;19.472;2022-08-19T03:45:18;26.60;63.20
18412;DHT22;27097;51.738;19.472;2022-08-19T03:47:45;26.60;63.40
18412;DHT22;27097;51.738;19.472;2022-08-19T03:50:12;26.60;63.20
18412;DHT22;27097;51.738;19.472;2022-08-19T03:52:39;26.60;63.30
18412;DHT22;27097;51.738;19.472;2022-08-19T03:55:07;26.60;63.40
18412;DHT22;27097;51.738;19.472;2022-08-19T03:57:35;26.60;63.30
18412;DHT22;27097;51.738;19.472;2022-08-19T04:00:04;26.60;63.40
18412;DHT22;27097;51.738;19.472;2022-08-19T04:02:32;26.60;63.40
18412;DHT22;27097;51.738;19.472;2022-08-19T04:04:59;26.60;63.20
18412;DHT22;27097;51.738;19.472;2022-08-19T04:07:26;26.60;63.10
18412;DHT22;27097;51.738;19.472;2022-08-19T04:09:53;26.60;63.10
18412;DHT22;27097;51.738;19.472;2022-08-19T04:12:20;26.60;63.10
18412;DHT22;27097;51.738;19.472;2022-08-19T04:14:48;26.60;63.20
18412;DHT22;27097;51.738;19.472;2022-08-19T04:17:15;26.60;63.40
18412;DHT22;27097;51.738;19.472;2022-08-19T04:19:42;26.60;63.30
18412;DHT22;27097;51.738;19.472;2022-08-19T04:22:10;26.50;63.60
18412;DHT22;27097;51.738;19.472;2022-08-19T04:24:38;26.50;63.60
18412;DHT22;27097;51.738;19.472;2022-08-19T04:27:05;26.60;63.60
18412;DHT22;27097;51.738;19.472;2022-08-19T04:29:33;26.50;63.50
18412;DHT22;27097;51.738;19.472;2022-08-19T04:32:01;26.50;63.50
18412;DHT22;27097;51.738;19.472;2022-08-19T04:34:29;26.50;63.50
18412;DHT22;27097;51.738;19.472;2022-08-19T04:36:57;26.50;63.60
18412;DHT22;27097;51.738;19.472;2022-08-19T04:39:27;26.50;63.60
18412;DHT22;27097;51.738;19.472;2022-08-19T04:42:15;26.50;63.80
18412;DHT22;27097;51.738;19.472;2022-08-19T04:45:00;26.50;63.80
18412;DHT22;27097;51.738;19.472;2022-08-19T04:47:30;26.60;63.60
18412;DHT22;27097;51.738;19.472;2022-08-19T04:49:58;26.60;63.50
18412;DHT22;27097;51.738;19.472;2022-08-19T04:52:25;26.60;64.50
18412;DHT22;27097;51.738;19.472;2022-08-19T04:54:52;26.60;63.40
18412;DHT22;27097;51.738;19.472;2022-08-19T04:57:21;26.60;63.40
18412;DHT22;27097;51.738;19.472;2022-08-19T04:59:48;26.60;63.60
18412;DHT22;27097;51.738;19.472;2022-08-19T05:02:15;26.60;63.20
18412;DHT22;27097;51.738;19.472;2022-08-19T05:04:43;26.60;63.40
18412;DHT22;27097;51.738;19.472;2022-08-19T05:07:11;26.60;63.20
18412;DHT22;27097;51.738;19.472;2022-08-19T05:09:38;26.60;63.40
18412;DHT22;27097;51.738;19.472;2022-08-19T05:12:06;26.60;63.40
18412;DHT22;27097;51.738;19.472;2022-08-19T05:14:35;26.60;63.60
18412;DHT22;27097;51.738;19.472;2022-08-19T05:17:02;26.60;63.30
18412;DHT22;27097;51.738;19.472;2022-08-19T05:19:29;26.60;63.50
18412;DHT22;27097;51.738;19.472;2022-08-19T05:22:15;26.70;63.70
18412;DHT22;27097;51.738;19.472;2022-08-19T05:25:03;26.70;63.70
18412;DHT22;27097;51.738;19.472;2022-08-19T05:27:31;26.70;63.10
18412;DHT22;27097;51.738;19.472;2022-08-19T05:29:58;26.70;62.90
18412;DHT22;27097;51.738;19.472;2022-08-19T05:32:25;26.80;63.30
18412;DHT22;27097;51.738;19.472;2022-08-19T05:34:52;26.80;63.30
18412;DHT22;27097;51.738;19.472;2022-08-19T05:37:20;26.80;62.90
18412;DHT22;27097;51.738;19.472;2022-08-19T05:39:48;26.80;63.10
18412;DHT22;27097;51.738;19.472;2022-08-19T05:42:15;26.80;63.00
18412;DHT22;27097;51.738;19.472;2022-08-19T05:44:44;26.80;62.90
18412;DHT22;27097;51.738;19.472;2022-08-19T05:47:12;26.80;63.20
18412;DHT22;27097;51.738;19.472;2022-08-19T05:49:41;26.80;62.80
18412;DHT22;27097;51.738;19.472;2022-08-19T05:52:10;26.90;63.00
18412;DHT22;27097;51.738;19.472;2022-08-19T05:54:39;26.90;63.00
18412;DHT22;27097;51.738;19.472;2022-08-19T05:57:07;27.00;63.20
18412;DHT22;27097;51.738;19.472;2022-08-19T05:59:34;27.00;63.00
18412;DHT22;27097;51.738;19.472;2022-08-19T06:02:03;27.00;63.20
18412;DHT22;27097;51.738;19.472;2022-08-19T06:04:30;27.00;62.50
18412;DHT22;27097;51.738;19.472;2022-08-19T06:06:57;27.00;62.40
18412;DHT22;27097;51.738;19.472;2022-08-19T06:09:24;27.10;62.20
18412;DHT22;27097;51.738;19.472;2022-08-19T06:11:55;27.10;62.80
18412;DHT22;27097;51.738;19.472;2022-08-19T06:14:27;27.10;62.50
18412;DHT22;27097;51.738;19.472;2022-08-19T06:16:54;27.10;62.50
18412;DHT22;27097;51.738;19.472;2022-08-19T06:19:22;27.10;62.30
18412;DHT22;27097;51.738;19.472;2022-08-19T06:21:52;27.10;62.50
18412;DHT22;27097;51.738;19.472;2022-08-19T06:24:21;27.10;63.00
18412;DHT22;27097;51.738;19.472;2022-08-19T06:26:51;27.10;63.30
18412;DHT22;27097;51.738;19.472;2022-08-19T06:29:21;27.20;63.10
18412;DHT22;27097;51.738;19.472;2022-08-19T06:31:52;27.20;62.90
18412;DHT22;27097;51.738;19.472;2022-08-19T06:34:20;27.20;62.80
18412;DHT22;27097;51.738;19.472;2022-08-19T06:36:49;27.30;62.70
18412;DHT22;27097;51.738;19.472;2022-08-19T06:39:19;27.30;62.70
18412;DHT22;27097;51.738;19.472;2022-08-19T06:41:49;27.30;63.10
18412;DHT22;27097;51.738;19.472;2022-08-19T06:44:16;27.30;62.70
18412;DHT22;27097;51.738;19.472;2022-08-19T06:46:45;27.30;62.50
18412;DHT22;27097;51.738;19.472;2022-08-19T06:49:12;27.40;62.10
18412;DHT22;27097;51.738;19.472;2022-08-19T06:51:42;27.40;62.60
18412;DHT22;27097;51.738;19.472;2022-08-19T06:54:09;27.40;62.20
18412;DHT22;27097;51.738;19.472;2022-08-19T06:56:37;27.40;62.90
18412;DHT22;27097;51.738;19.472;2022-08-19T06:59:06;27.40;62.20
18412;DHT22;27097;51.738;19.472;2022-08-19T07:01:38;27.40;62.70
18412;DHT22;27097;51.738;19.472;2022-08-19T07:04:08;27.40;62.20
18412;DHT22;27097;51.738;19.472;2022-08-19T07:06:36;27.40;63.10
18412;DHT22;27097;51.738;19.472;2022-08-19T07:09:07;27.40;63.00
18412;DHT22;27097;51.738;19.472;2022-08-19T07:11:34;27.40;63.50
18412;DHT22;27097;51.738;19.472;2022-08-19T07:14:02;27.40;63.20
18412;DHT22;27097;51.738;19.472;2022-08-19T07:16:29;27.40;62.90
18412;DHT22;27097;51.738;19.472;2022-08-19T07:18:58;27.50;63.70
18412;DHT22;27097;51.738;19.472;2022-08-19T07:21:27;27.50;63.00
18412;DHT22;27097;51.738;19.472;2022-08-19T07:23:55;27.50;63.60
18412;DHT22;27097;51.738;19.472;2022-08-19T07:26:25;27.50;63.20
18412;DHT22;27097;51.738;19.472;2022-08-19T07:28:54;27.50;63.60
18412;DHT22;27097;51.738;19.472;2022-08-19T07:31:22;27.50;63.60
18412;DHT22;27097;51.738;19.472;2022-08-19T07:33:52;27.60;63.60
18412;DHT22;27097;51.738;19.472;2022-08-19T07:36:24;27.60;63.40
18412;DHT22;27097;51.738;19.472;2022-08-19T07:38:52;27.60;63.90
18412;DHT22;27097;51.738;19.472;2022-08-19T07:41:23;27.60;64.00
18412;DHT22;27097;51.738;19.472;2022-08-19T07:43:51;27.60;63.60
18412;DHT22;27097;51.738;19.472;2022-08-19T07:46:19;27.70;63.60
18412;DHT22;27097;51.738;19.472;2022-08-19T07:48:48;27.70;63.50
18412;DHT22;27097;51.738;19.472;2022-08-19T07:51:19;27.70;63.70
18412;DHT22;27097;51.738;19.472;2022-08-19T07:53:47;27.70;64.40
18412;DHT22;27097;51.738;19.472;2022-08-19T07:56:19;27.80;64.20
18412;DHT22;27097;51.738;19.472;2022-08-19T07:58:47;27.80;63.90
18412;DHT22;27097;51.738;19.472;2022-08-19T08:01:17;27.80;63.80
18412;DHT22;27097;51.738;19.472;2022-08-19T08:03:45;27.80;63.80
18412;DHT22;27097;51.738;19.472;2022-08-19T08:06:30;27.90;64.10
18412;DHT22;27097;51.738;19.472;2022-08-19T08:09:16;27.90;63.50
18412;DHT22;27097;51.738;19.472;2022-08-19T08:11:51;27.90;63.60
18412;DHT22;27097;51.738;19.472;2022-08-19T08:14:21;27.90;63.40
18412;DHT22;27097;51.738;19.472;2022-08-19T08:16:49;28.00;63.30
18412;DHT22;27097;51.738;19.472;2022-08-19T08:19:17;28.00;63.70
18412;DHT22;27097;51.738;19.472;2022-08-19T08:21:46;28.10;63.40
18412;DHT22;27097;51.738;19.472;2022-08-19T08:24:14;28.10;63.10
18412;DHT22;27097;51.738;19.472;2022-08-19T08:26:41;28.10;63.50
18412;DHT22;27097;51.738;19.472;2022-08-19T08:29:11;28.20;63.80
18412;DHT22;27097;51.738;19.472;2022-08-19T08:31:39;28.20;63.50
18412;DHT22;27097;51.738;19.472;2022-08-19T08:34:07;28.20;63.10
18412;DHT22;27097;51.738;19.472;2022-08-19T08:36:36;28.30;62.70
18412;DHT22;27097;51.738;19.472;2022-08-19T08:39:06;28.30;62.50
18412;DHT22;27097;51.738;19.472;2022-08-19T08:41:37;28.30;63.20
18412;DHT22;27097;51.738;19.472;2022-08-19T08:44:15;28.30;63.80
18412;DHT22;27097;51.738;19.472;2022-08-19T08:46:47;28.30;63.80
18412;DHT22;27097;51.738;19.472;2022-08-19T08:49:26;28.30;64.40
18412;DHT22;27097;51.738;19.472;2022-08-19T08:52:00;28.30;64.40
18412;DHT22;27097;51.738;19.472;2022-08-19T08:54:33;28.30;65.00
18412;DHT22;27097;51.738;19.472;2022-08-19T08:57:04;28.30;64.90
18412;DHT22;27097;51.738;19.472;2022-08-19T08:59:35;28.30;64.60
18412;DHT22;27097;51.738;19.472;2022-08-19T09:02:03;28.40;63.70
18412;DHT22;27097;51.738;19.472;2022-08-19T09:04:31;28.40;63.70
18412;DHT22;27097;51.738;19.472;2022-08-19T09:07:12;28.40;62.50
18412;DHT22;27097;51.738;19.472;2022-08-19T09:09:43;28.40;63.10
18412;DHT22;27097;51.738;19.472;2022-08-19T09:12:19;28.50;62.90
18412;DHT22;27097;51.738;19.472;2022-08-19T09:14:52;28.50;63.20
18412;DHT22;27097;51.738;19.472;2022-08-19T09:17:22;28.50;63.00
18412;DHT22;27097;51.738;19.472;2022-08-19T09:19:58;28.50;61.70
18412;DHT22;27097;51.738;19.472;2022-08-19T09:22:26;28.50;61.70
18412;DHT22;27097;51.738;19.472;2022-08-19T09:24:54;28.50;62.10
18412;DHT22;27097;51.738;19.472;2022-08-19T09:27:22;28.60;61.80
18412;DHT22;27097;51.738;19.472;2022-08-19T09:29:52;28.60;61.30
18412;DHT22;27097;51.738;19.472;2022-08-19T09:32:19;28.60;61.20
18412;DHT22;27097;51.738;19.472;2022-08-19T09:34:47;28.60;61.50
18412;DHT22;27097;51.738;19.472;2022-08-19T09:37:14;28.60;61.20
18412;DHT22;27097;51.738;19.472;2022-08-19T09:39:44;28.60;61.40
18412;DHT22;27097;51.738;19.472;2022-08-19T09:42:11;28.60;61.50
18412;DHT22;27097;51.738;19.472;2022-08-19T09:44:42;28.60;60.90
18412;DHT22;27097;51.738;19.472;2022-08-19T09:47:12;28.70;61.20
18412;DHT22;27097;51.738;19.472;2022-08-19T09:49:40;28.70;61.10
18412;DHT22;27097;51.738;19.472;2022-08-19T09:52:08;28.70;61.40
18412;DHT22;27097;51.738;19.472;2022-08-19T09:54:36;28.70;61.30
18412;DHT22;27097;51.738;19.472;2022-08-19T09:57:04;28.70;61.60
18412;DHT22;27097;51.738;19.472;2022-08-19T09:59:31;28.70;61.40
18412;DHT22;27097;51.738;19.472;2022-08-19T10:02:04;28.70;61.40
18412;DHT22;27097;51.738;19.472;2022-08-19T10:04:32;28.70;61.50
18412;DHT22;27097;51.738;19.472;2022-08-19T10:07:13;28.70;61.50
18412;DHT22;27097;51.738;19.472;2022-08-19T10:09:40;28.70;61.20
18412;DHT22;27097;51.738;19.472;2022-08-19T10:12:07;28.70;60.70
18412;DHT22;27097;51.738;19.472;2022-08-19T10:14:35;28.70;60.90
18412;DHT22;27097;51.738;19.472;2022-08-19T10:17:02;28.70;61.40
18412;DHT22;27097;51.738;19.472;2022-08-19T10:19:29;28.70;60.70
18412;DHT22;27097;51.738;19.472;2022-08-19T10:22:04;28.70;60.70
18412;DHT22;27097;51.738;19.472;2022-08-19T10:24:32;28.70;61.00
18412;DHT22;27097;51.738;19.472;2022-08-19T10:27:00;28.70;61.30
18412;DHT22;27097;51.738;19.472;2022-08-19T10:29:29;28.70;61.50
18412;DHT22;27097;51.738;19.472;2022-08-19T10:31:57;28.70;60.70
18412;DHT22;27097;51.738;19.472;2022-08-19T10:34:28;28.70;60.30
18412;DHT22;27097;51.738;19.472;2022-08-19T10:36:55;28.80;60.50
18412;DHT22;27097;51.738;19.472;2022-08-19T10:39:24;28.80;61.00
18412;DHT22;27097;51.738;19.472;2022-08-19T10:41:53;28.80;60.90
18412;DHT22;27097;51.738;19.472;2022-08-19T10:44:22;28.80;60.90
18412;DHT22;27097;51.738;19.472;2022-08-19T10:46:50;28.80;60.10
18412;DHT22;27097;51.738;19.472;2022-08-19T10:49:18;28.80;60.80
18412;DHT22;27097;51.738;19.472;2022-08-19T10:51:45;28.80;61.00
18412;DHT22;27097;51.738;19.472;2022-08-19T10:54:32;28.80;60.80
18412;DHT22;27097;51.738;19.472;2022-08-19T10:57:17;28.80;61.40
18412;DHT22;27097;51.738;19.472;2022-08-19T10:59:44;28.80;60.10
18412;DHT22;27097;51.738;19.472;2022-08-19T11:02:12;28.80;60.70
18412;DHT22;27097;51.738;19.472;2022-08-19T11:04:40;28.80;60.70
18412;DHT22;27097;51.738;19.472;2022-08-19T11:07:07;28.80;59.80
18412;DHT22;27097;51.738;19.472;2022-08-19T11:09:41;28.80;60.00
18412;DHT22;27097;51.738;19.472;2022-08-19T11:12:09;28.80;59.70
18412;DHT22;27097;51.738;19.472;2022-08-19T11:14:38;28.90;60.00
18412;DHT22;27097;51.738;19.472;2022-08-19T11:17:06;28.90;60.20
18412;DHT22;27097;51.738;19.472;2022-08-19T11:19:33;28.90;59.80
18412;DHT22;27097;51.738;19.472;2022-08-19T11:22:00;28.90;59.40
18412;DHT22;27097;51.738;19.472;2022-08-19T11:24:29;28.90;59.80
18412;DHT22;27097;51.738;19.472;2022-08-19T11:27:02;28.90;59.90
18412;DHT22;27097;51.738;19.472;2022-08-19T11:29:30;28.90;59.80
18412;DHT22;27097;51.738;19.472;2022-08-19T11:31:58;28.90;60.10
18412;DHT22;27097;51.738;19.472;2022-08-19T11:34:27;28.90;59.50
18412;DHT22;27097;51.738;19.472;2022-08-19T11:36:55;28.90;59.30
18412;DHT22;27097;51.738;19.472;2022-08-19T11:39:25;28.90;59.40
18412;DHT22;27097;51.738;19.472;2022-08-19T11:41:53;28.90;59.60
18412;DHT22;27097;51.738;19.472;2022-08-19T11:44:21;29.00;59.40
18412;DHT22;27097;51.738;19.472;2022-08-19T11:46:48;29.00;59.50
18412;DHT22;27097;51.738;19.472;2022-08-19T11:49:16;29.00;59.30
18412;DHT22;27097;51.738;19.472;2022-08-19T11:51:44;29.00;59.40
18412;DHT22;27097;51.738;19.472;2022-08-19T11:54:12;29.10;58.80
18412;DHT22;27097;51.738;19.472;2022-08-19T11:56:40;29.10;58.80
18412;DHT22;27097;51.738;19.472;2022-08-19T11:59:07;29.20;58.60
18412;DHT22;27097;51.738;19.472;2022-08-19T12:01:36;29.30;58.20
18412;DHT22;27097;51.738;19.472;2022-08-19T12:04:06;29.40;58.30
18412;DHT22;27097;51.738;19.472;2022-08-19T12:06:33;29.50;57.40
18412;DHT22;27097;51.738;19.472;2022-08-19T12:09:04;29.40;57.90
18412;DHT22;27097;51.738;19.472;2022-08-19T12:11:32;29.40;58.00
18412;DHT22;27097;51.738;19.472;2022-08-19T12:13:59;29.40;58.10
18412;DHT22;27097;51.738;19.472;2022-08-19T12:16:27;29.30;58.00
18412;DHT22;27097;51.738;19.472;2022-08-19T12:18:58;29.30;58.10
18412;DHT22;27097;51.738;19.472;2022-08-19T12:21:29;29.20;57.90
18412;DHT22;27097;51.738;19.472;2022-08-19T12:23:57;29.20;58.60
18412;DHT22;27097;51.738;19.472;2022-08-19T12:26:25;29.10;58.40
18412;DHT22;27097;51.738;19.472;2022-08-19T12:28:53;29.10;58.20
18412;DHT22;27097;51.738;19.472;2022-08-19T12:31:20;29.10;58.30
18412;DHT22;27097;51.738;19.472;2022-08-19T12:33:48;29.10;58.80
18412;DHT22;27097;51.738;19.472;2022-08-19T12:36:16;29.10;58.50
18412;DHT22;27097;51.738;19.472;2022-08-19T12:38:44;29.10;58.40
18412;DHT22;27097;51.738;19.472;2022-08-19T12:41:13;29.10;58.60
18412;DHT22;27097;51.738;19.472;2022-08-19T12:43:42;29.10;58.50
18412;DHT22;27097;51.738;19.472;2022-08-19T12:46:10;29.10;58.90
18412;DHT22;27097;51.738;19.472;2022-08-19T12:48:38;29.00;58.60
18412;DHT22;27097;51.738;19.472;2022-08-19T12:51:08;29.00;58.70
18412;DHT22;27097;51.738;19.472;2022-08-19T12:53:37;29.00;59.00
18412;DHT22;27097;51.738;19.472;2022-08-19T12:56:04;29.00;58.10
18412;DHT22;27097;51.738;19.472;2022-08-19T12:58:31;29.00;58.30
18412;DHT22;27097;51.738;19.472;2022-08-19T13:01:00;29.00;58.20
18412;DHT22;27097;51.738;19.472;2022-08-19T13:03:32;29.00;58.20
18412;DHT22;27097;51.738;19.472;2022-08-19T13:05:59;29.00;58.40
18412;DHT22;27097;51.738;19.472;2022-08-19T13:08:25;29.10;58.40
18412;DHT22;27097;51.738;19.472;2022-08-19T13:10:54;29.10;57.70
18412;DHT22;27097;51.738;19.472;2022-08-19T13:13:21;29.20;57.90
18412;DHT22;27097;51.738;19.472;2022-08-19T13:15:48;29.30;57.90
18412;DHT22;27097;51.738;19.472;2022-08-19T13:18:15;29.30;57.80
18412;DHT22;27097;51.738;19.472;2022-08-19T13:20:42;29.20;58.10
18412;DHT22;27097;51.738;19.472;2022-08-19T13:23:09;29.10;58.20
18412;DHT22;27097;51.738;19.472;2022-08-19T13:25:36;29.10;58.40
18412;DHT22;27097;51.738;19.472;2022-08-19T13:28:05;29.10;57.90
18412;DHT22;27097;51.738;19.472;2022-08-19T13:30:32;29.00;58.40
18412;DHT22;27097;51.738;19.472;2022-08-19T13:33:17;29.00;58.60
18412;DHT22;27097;51.738;19.472;2022-08-19T13:35:46;29.00;58.60
18412;DHT22;27097;51.738;19.472;2022-08-19T13:38:15;28.90;59.00
18412;DHT22;27097;51.738;19.472;2022-08-19T13:40:44;28.90;59.30
18412;DHT22;27097;51.738;19.472;2022-08-19T13:43:13;28.90;59.30
18412;DHT22;27097;51.738;19.472;2022-08-19T13:45:40;28.90;59.40
18412;DHT22;27097;51.738;19.472;2022-08-19T13:48:08;28.90;59.50
18412;DHT22;27097;51.738;19.472;2022-08-19T13:50:38;28.90;59.10
18412;DHT22;27097;51.738;19.472;2022-08-19T13:53:07;28.90;59.40
18412;DHT22;27097;51.738;19.472;2022-08-19T13:55:36;28.90;59.40
18412;DHT22;27097;51.738;19.472;2022-08-19T13:58:03;28.90;59.40
18412;DHT22;27097;51.738;19.472;2022-08-19T14:00:35;28.90;59.30
18412;DHT22;27097;51.738;19.472;2022-08-19T14:03:02;28.90;59.60
18412;DHT22;27097;51.738;19.472;2022-08-19T14:05:30;28.80;59.70
18412;DHT22;27097;51.738;19.472;2022-08-19T14:07:57;28.90;59.60
18412;DHT22;27097;51.738;19.472;2022-08-19T14:10:25;28.80;59.80
18412;DHT22;27097;51.738;19.472;2022-08-19T14:12:54;28.80;59.70
18412;DHT22;27097;51.738;19.472;2022-08-19T14:15:22;28.80;59.90
18412;DHT22;27097;51.738;19.472;2022-08-19T14:17:51;28.80;60.30
18412;DHT22;27097;51.738;19.472;2022-08-19T14:20:19;28.80;59.80
18412;DHT22;27097;51.738;19.472;2022-08-19T14:22:47;28.80;59.30
18412;DHT22;27097;51.738;19.472;2022-08-19T14:25:16;28.80;59.50
18412;DHT22;27097;51.738;19.472;2022-08-19T14:27:47;28.80;59.60
18412;DHT22;27097;51.738;19.472;2022-08-19T14:30:17;28.80;59.50
18412;DHT22;27097;51.738;19.472;2022-08-19T14:32:46;28.80;58.90
18412;DHT22;27097;51.738;19.472;2022-08-19T14:35:16;28.80;58.80
18412;DHT22;27097;51.738;19.472;2022-08-19T14:37:44;28.80;59.10
18412;DHT22;27097;51.738;19.472;2022-08-19T14:40:12;28.80;58.70
18412;DHT22;27097;51.738;19.472;2022-08-19T14:42:40;28.80;59.20
18412;DHT22;27097;51.738;19.472;2022-08-19T14:45:11;28.80;59.00
18412;DHT22;27097;51.738;19.472;2022-08-19T14:47:40;28.70;59.20
18412;DHT22;27097;51.738;19.472;2022-08-19T14:50:10;28.70;58.90
18412;DHT22;27097;51.738;19.472;2022-08-19T14:52:39;28.70;59.00
18412;DHT22;27097;51.738;19.472;2022-08-19T14:55:06;28.70;58.80
18412;DHT22;27097;51.738;19.472;2022-08-19T14:57:33;28.70;58.30
18412;DHT22;27097;51.738;19.472;2022-08-19T15:00:04;28.70;58.50
18412;DHT22;27097;51.738;19.472;2022-08-19T15:02:34;28.70;58.60
18412;DHT22;27097;51.738;19.472;2022-08-19T15:05:04;28.70;58.20
18412;DHT22;27097;51.738;19.472;2022-08-19T15:07:31;28.70;58.40
18412;DHT22;27097;51.738;19.472;2022-08-19T15:09:59;28.70;58.40
18412;DHT22;27097;51.738;19.472;2022-08-19T15:12:26;28.70;58.20
18412;DHT22;27097;51.738;19.472;2022-08-19T15:14:53;28.70;58.00
18412;DHT22;27097;51.738;19.472;2022-08-19T15:17:20;28.70;57.80
18412;DHT22;27097;51.738;19.472;2022-08-19T15:19:47;28.70;57.80
18412;DHT22;27097;51.738;19.472;2022-08-19T15:22:17;28.70;58.00
18412;DHT22;27097;51.738;19.472;2022-08-19T15:24:44;28.70;57.90